Time;durP1;ratioP1;P1;durP2;ratioP2;P2;SDS_P1;SDS_P2;PMS_P1;PMS_P2;Temp;Humidity;BMP_temperature;BMP_pressure;BME280_temperature;BME280_humidity;BME280_pressure;Samples;Min_cycle;Max_cycle;Signal;HPM_P1;HPM_P2
2023/04/21 00:01:35;;;;;;;30.08;18.45;;;;;;;;;;5053639;28;20086;-64
2023/04/21 00:04:01;;;;;;;32.58;18.50;;;;;;;;;;5037119;28;20755;-64
2023/04/21 00:06:30;;;;;;;30.05;16.88;;;;;;;;;;5052186;28;20044;-64
2023/04/21 00:08:56;;;;;;;33.58;17.08;;;;;;;;;;5053707;28;20370;-64
2023/04/21 00:11:22;;;;;;;33.13;16.95;;;;;;;;;;5071233;28;20083;-64
2023/04/21 00:13:48;;;;;;;30.17;19.92;;;;;;;;;;5072128;28;20059;-64
2023/04/21 00:16:14;;;;;;;32.05;16.77;;;;;;;;;;5069704;28;20045;-64
2023/04/21 00:18:40;;;;;;;26.27;16.75;;;;;;;;;;5053580;28;20106;-64
2023/04/21 00:21:06;;;;;;;30.67;18.75;;;;;;;;;;5053778;28;20048;-64
2023/04/21 00:23:32;;;;;;;31.00;17.05;;;;;;;;;;5053220;28;20048;-64
2023/04/21 00:26:01;;;;;;;34.80;18.15;;;;;;;;;;5070759;28;20501;-64
2023/04/21 00:28:27;;;;;;;28.02;16.33;;;;;;;;;;5053665;28;20040;-64
2023/04/21 00:30:53;;;;;;;37.28;17.02;;;;;;;;;;5052960;28;20047;-64
2023/04/21 00:33:19;;;;;;;27.17;16.17;;;;;;;;;;5052365;28;20059;-64
2023/04/21 00:35:46;;;;;;;27.40;15.05;;;;;;;;;;5070621;28;20052;-64
2023/04/21 00:38:12;;;;;;;25.70;15.10;;;;;;;;;;5052981;28;20048;-65
2023/04/21 00:40:38;;;;;;;23.85;15.23;;;;;;;;;;5071570;28;20067;-64
2023/04/21 00:43:07;;;;;;;25.25;14.93;;;;;;;;;;5071714;28;20452;-64
2023/04/21 00:45:33;;;;;;;26.60;14.68;;;;;;;;;;5070193;28;20060;-65
2023/04/21 00:47:59;;;;;;;22.10;12.88;;;;;;;;;;5057287;28;20554;-64
2023/04/21 00:50:25;;;;;;;25.67;14.68;;;;;;;;;;5040694;28;20135;-63
2023/04/21 00:52:52;;;;;;;20.85;13.70;;;;;;;;;;5057372;28;20768;-64
2023/04/21 00:55:18;;;;;;;22.75;12.65;;;;;;;;;;5057207;28;20060;-64
2023/04/21 00:57:44;;;;;;;27.60;15.82;;;;;;;;;;5074275;28;20443;-64
2023/04/21 01:00:10;;;;;;;22.05;13.30;;;;;;;;;;5063203;28;20120;-64
2023/04/21 01:02:38;;;;;;;20.15;11.90;;;;;;;;;;5061016;28;20496;-64
2023/04/21 01:05:08;;;;;;;28.33;14.50;;;;;;;;;;5059280;28;20056;-63
2023/04/21 01:07:35;;;;;;;24.20;12.73;;;;;;;;;;5042865;28;20047;-64
2023/04/21 01:10:01;;;;;;;21.83;13.38;;;;;;;;;;5052035;28;20058;-64
2023/04/21 01:12:27;;;;;;;25.23;13.20;;;;;;;;;;5079366;28;20064;-64
2023/04/21 01:14:53;;;;;;;28.90;15.15;;;;;;;;;;5056839;28;20040;-64
2023/04/21 01:17:19;;;;;;;22.30;12.80;;;;;;;;;;5081812;28;20055;-64
2023/04/21 01:19:45;;;;;;;27.00;14.45;;;;;;;;;;5056223;28;20084;-64
2023/04/21 01:22:14;;;;;;;23.75;13.45;;;;;;;;;;5090005;28;20052;-65
2023/04/21 01:24:41;;;;;;;24.95;14.15;;;;;;;;;;5056517;28;20056;-64
2023/04/21 01:27:11;;;;;;;25.92;13.45;;;;;;;;;;5073891;28;20037;-64
2023/04/21 01:29:37;;;;;;;23.87;13.73;;;;;;;;;;5056517;28;20057;-64
2023/04/21 01:32:08;;;;;;;27.45;14.85;;;;;;;;;;5087913;28;20052;-64
2023/04/21 01:34:34;;;;;;;21.17;12.90;;;;;;;;;;5054932;28;20052;-64
2023/04/21 01:37:00;;;;;;;22.25;13.23;;;;;;;;;;5080479;28;20080;-64
2023/04/21 01:39:26;;;;;;;20.50;10.73;;;;;;;;;;5059708;28;20472;-63
2023/04/21 01:41:54;;;;;;;23.77;12.73;;;;;;;;;;5067613;28;20044;-64
2023/04/21 01:44:20;;;;;;;20.58;12.88;;;;;;;;;;5066343;28;20607;-64
2023/04/21 01:46:46;;;;;;;23.90;13.50;;;;;;;;;;5036770;28;20056;-64
2023/04/21 01:49:13;;;;;;;24.48;12.48;;;;;;;;;;5055219;28;20032;-64
2023/04/21 01:51:39;;;;;;;21.73;12.57;;;;;;;;;;5073481;28;20041;-64
2023/04/21 01:54:05;;;;;;;21.30;12.65;;;;;;;;;;5038136;28;20040;-64
2023/04/21 01:56:31;;;;;;;17.65;11.05;;;;;;;;;;5074764;28;20192;-64
2023/04/21 01:58:57;;;;;;;25.80;12.63;;;;;;;;;;5075674;28;20052;-64
2023/04/21 02:01:23;;;;;;;25.55;12.10;;;;;;;;;;5093390;28;20047;-64
2023/04/21 02:03:49;;;;;;;23.42;12.25;;;;;;;;;;5057169;28;20052;-64
2023/04/21 02:06:16;;;;;;;21.90;12.52;;;;;;;;;;5040757;28;20060;-64
2023/04/21 02:08:42;;;;;;;23.52;13.50;;;;;;;;;;5075285;28;20105;-64
2023/04/21 02:11:08;;;;;;;24.35;13.10;;;;;;;;;;5067816;28;20045;-64
2023/04/21 02:13:34;;;;;;;25.48;12.45;;;;;;;;;;5084325;28;20054;-64
2023/04/21 02:16:01;;;;;;;22.02;12.02;;;;;;;;;;5073230;28;20045;-64
2023/04/21 02:18:28;;;;;;;24.58;12.43;;;;;;;;;;5066689;28;20074;-64
2023/04/21 02:20:55;;;;;;;26.48;11.00;;;;;;;;;;5052788;28;20106;-64
2023/04/21 02:23:21;;;;;;;20.75;11.98;;;;;;;;;;5055260;28;20044;-64
2023/04/21 02:25:47;;;;;;;21.40;12.23;;;;;;;;;;5040604;28;20614;-64
2023/04/21 02:28:13;;;;;;;21.58;12.30;;;;;;;;;;5073377;28;20489;-64
2023/04/21 02:30:39;;;;;;;23.60;12.50;;;;;;;;;;5051348;28;20051;-64
2023/04/21 02:33:05;;;;;;;20.27;13.40;;;;;;;;;;5063135;22;1118320;-64
2023/04/21 02:35:32;;;;;;;19.98;12.10;;;;;;;;;;5093020;28;20487;-64
2023/04/21 02:37:58;;;;;;;21.02;11.60;;;;;;;;;;5075414;28;20039;-64
2023/04/21 02:40:25;;;;;;;18.58;11.40;;;;;;;;;;5074621;28;20496;-64
2023/04/21 02:42:51;;;;;;;21.65;12.50;;;;;;;;;;5071255;28;20100;-64
2023/04/21 02:45:17;;;;;;;20.63;9.70;;;;;;;;;;5093152;28;20134;-64
2023/04/21 02:47:43;;;;;;;22.50;11.30;;;;;;;;;;5092897;28;20085;-64
2023/04/21 02:50:09;;;;;;;20.98;12.90;;;;;;;;;;5042656;22;20102;-64
2023/04/21 02:52:36;;;;;;;22.42;11.70;;;;;;;;;;5127822;22;21020;-64
2023/04/21 02:55:03;;;;;;;20.60;11.57;;;;;;;;;;5074928;28;20411;-64
2023/04/21 02:57:29;;;;;;;22.20;11.02;;;;;;;;;;5073025;28;20068;-64
2023/04/21 02:59:55;;;;;;;24.52;11.40;;;;;;;;;;5071585;28;20056;-64
2023/04/21 03:02:21;;;;;;;23.42;10.25;;;;;;;;;;5068771;28;20123;-64
2023/04/21 03:04:47;;;;;;;16.10;10.23;;;;;;;;;;5080611;28;20048;-64
2023/04/21 03:07:13;;;;;;;19.92;10.57;;;;;;;;;;5075984;28;20040;-64
2023/04/21 03:09:39;;;;;;;18.65;10.38;;;;;;;;;;5072624;28;20051;-64
2023/04/21 03:12:05;;;;;;;21.58;11.20;;;;;;;;;;5073666;28;20852;-64
2023/04/21 03:14:31;;;;;;;24.08;10.68;;;;;;;;;;5073195;28;20052;-64
2023/04/21 03:16:57;;;;;;;19.15;11.73;;;;;;;;;;5083166;28;20075;-64
2023/04/21 03:19:23;;;;;;;19.58;9.80;;;;;;;;;;5089832;28;20072;-64
2023/04/21 03:21:49;;;;;;;19.63;10.52;;;;;;;;;;5092294;28;20101;-64
2023/04/21 03:24:16;;;;;;;18.88;10.75;;;;;;;;;;5092119;28;20039;-64
2023/04/21 03:26:42;;;;;;;19.08;10.30;;;;;;;;;;5082666;28;20128;-64
2023/04/21 03:29:08;;;;;;;23.00;11.95;;;;;;;;;;5072608;28;20568;-64
2023/04/21 03:31:34;;;;;;;15.35;9.40;;;;;;;;;;5048461;28;20489;-64
2023/04/21 03:34:00;;;;;;;19.48;10.98;;;;;;;;;;5072527;28;20047;-64
2023/04/21 03:36:26;;;;;;;18.83;10.27;;;;;;;;;;5064051;28;20122;-65
2023/04/21 03:38:52;;;;;;;21.13;9.93;;;;;;;;;;5091443;28;20147;-64
2023/04/21 03:41:18;;;;;;;22.35;10.18;;;;;;;;;;5091486;28;20044;-64
2023/04/21 03:43:44;;;;;;;21.30;10.35;;;;;;;;;;5090803;28;20495;-64
2023/04/21 03:46:17;;;;;;;18.17;10.27;;;;;;;;;;5091273;28;20048;-64
2023/04/21 03:48:43;;;;;;;16.67;9.55;;;;;;;;;;5082442;28;20048;-65
2023/04/21 03:51:09;;;;;;;19.80;10.10;;;;;;;;;;5089360;28;20135;-64
2023/04/21 03:53:35;;;;;;;21.10;9.93;;;;;;;;;;5071133;28;20092;-65
2023/04/21 03:56:01;;;;;;;18.60;10.07;;;;;;;;;;5091697;28;20136;-64
2023/04/21 03:58:27;;;;;;;19.02;9.80;;;;;;;;;;5083213;28;20037;-64
2023/04/21 04:00:53;;;;;;;15.88;9.90;;;;;;;;;;5080788;28;20051;-64
2023/04/21 04:03:19;;;;;;;17.25;9.95;;;;;;;;;;5091860;28;20130;-64
2023/04/21 04:05:45;;;;;;;18.10;9.20;;;;;;;;;;5088000;28;20067;-64
2023/04/21 04:08:11;;;;;;;19.02;10.90;;;;;;;;;;5073801;28;20043;-65
2023/04/21 04:10:37;;;;;;;20.35;10.48;;;;;;;;;;5056825;28;20373;-64
2023/04/21 04:13:04;;;;;;;20.45;10.15;;;;;;;;;;5072864;28;20044;-65
2023/04/21 04:15:30;;;;;;;21.55;10.63;;;;;;;;;;5084253;28;20048;-65
2023/04/21 04:17:56;;;;;;;17.13;9.13;;;;;;;;;;5070978;28;20396;-65
2023/04/21 04:20:22;;;;;;;18.85;10.57;;;;;;;;;;5054468;28;20037;-64
2023/04/21 04:22:49;;;;;;;20.00;10.00;;;;;;;;;;5054204;28;20142;-64
2023/04/21 04:25:15;;;;;;;18.00;9.65;;;;;;;;;;5068888;28;20051;-65
2023/04/21 04:27:45;;;;;;;22.95;10.45;;;;;;;;;;5057316;28;20174;-64
2023/04/21 04:30:12;;;;;;;15.48;9.05;;;;;;;;;;5072739;28;20044;-65
2023/04/21 04:32:38;;;;;;;20.83;9.43;;;;;;;;;;5046764;28;20048;-64
2023/04/21 04:35:08;;;;;;;17.77;8.90;;;;;;;;;;5082900;28;20181;-64
2023/04/21 04:37:36;;;;;;;18.88;10.05;;;;;;;;;;5073841;28;20047;-64
2023/04/21 04:40:05;;;;;;;20.35;9.98;;;;;;;;;;5062477;28;20044;-64
2023/04/21 04:42:31;;;;;;;17.35;9.65;;;;;;;;;;5059466;28;20059;-65
2023/04/21 04:44:58;;;;;;;22.38;10.18;;;;;;;;;;5067740;28;20044;-64
2023/04/21 04:47:24;;;;;;;15.13;9.57;;;;;;;;;;5073449;28;20040;-64
2023/04/21 04:49:51;;;;;;;17.48;9.85;;;;;;;;;;5073886;28;20070;-64
2023/04/21 04:52:17;;;;;;;15.13;9.07;;;;;;;;;;5090401;28;20036;-64
2023/04/21 04:54:43;;;;;;;15.60;9.43;;;;;;;;;;5072330;28;20543;-64
2023/04/21 04:57:09;;;;;;;17.77;9.90;;;;;;;;;;5056475;28;20109;-64
2023/04/21 04:59:35;;;;;;;16.20;9.35;;;;;;;;;;5036256;28;20040;-64
2023/04/21 05:02:02;;;;;;;18.35;9.52;;;;;;;;;;5071553;28;20048;-64
2023/04/21 05:04:28;;;;;;;15.35;9.02;;;;;;;;;;5054310;28;20048;-64
2023/04/21 05:06:54;;;;;;;17.90;9.57;;;;;;;;;;5090455;28;20077;-64
2023/04/21 05:09:21;;;;;;;21.83;10.48;;;;;;;;;;5090505;28;20131;-64
2023/04/21 05:11:47;;;;;;;18.17;11.18;;;;;;;;;;5090250;28;20385;-64
2023/04/21 05:14:13;;;;;;;21.10;9.45;;;;;;;;;;5070946;28;20458;-65
2023/04/21 05:16:39;;;;;;;21.65;9.65;;;;;;;;;;5089458;28;20044;-64
2023/04/21 05:19:05;;;;;;;19.77;9.35;;;;;;;;;;5072784;28;20127;-64
2023/04/21 05:21:32;;;;;;;15.13;9.70;;;;;;;;;;5072902;28;20053;-64
2023/04/21 05:23:59;;;;;;;19.00;10.50;;;;;;;;;;5068900;28;20521;-64
2023/04/21 05:26:26;;;;;;;19.33;9.75;;;;;;;;;;5058131;28;20052;-64
2023/04/21 05:28:52;;;;;;;26.48;11.30;;;;;;;;;;5080350;28;20157;-65
2023/04/21 05:31:19;;;;;;;17.65;10.55;;;;;;;;;;5055991;28;20052;-64
2023/04/21 05:33:45;;;;;;;19.60;10.40;;;;;;;;;;5089316;28;20055;-64
2023/04/21 05:36:11;;;;;;;20.63;10.43;;;;;;;;;;5072609;28;20051;-65
2023/04/21 05:38:38;;;;;;;19.63;10.32;;;;;;;;;;5094058;28;20094;-64
2023/04/21 05:41:04;;;;;;;16.73;10.02;;;;;;;;;;5059828;28;20136;-64
2023/04/21 05:43:33;;;;;;;18.83;10.20;;;;;;;;;;5076908;28;20050;-64
2023/04/21 05:46:00;;;;;;;17.00;9.63;;;;;;;;;;5075282;28;20051;-64
2023/04/21 05:48:27;;;;;;;17.35;10.20;;;;;;;;;;5058545;28;20561;-64
2023/04/21 05:50:54;;;;;;;16.25;10.35;;;;;;;;;;5074251;28;20056;-64
2023/04/21 05:53:20;;;;;;;17.52;8.88;;;;;;;;;;5079258;28;20044;-64
2023/04/21 05:55:46;;;;;;;17.30;9.20;;;;;;;;;;5094314;28;20123;-64
2023/04/21 05:58:12;;;;;;;19.92;9.32;;;;;;;;;;5071924;28;20041;-64
2023/04/21 06:00:38;;;;;;;23.92;10.75;;;;;;;;;;5061466;28;20055;-64
2023/04/21 06:03:05;;;;;;;20.13;9.88;;;;;;;;;;5088290;28;20043;-64
2023/04/21 06:05:31;;;;;;;14.48;8.93;;;;;;;;;;5083544;28;20079;-64
2023/04/21 06:07:58;;;;;;;17.60;10.02;;;;;;;;;;5071346;28;20048;-64
2023/04/21 06:10:24;;;;;;;20.40;10.30;;;;;;;;;;5070948;28;20044;-64
2023/04/21 06:12:50;;;;;;;16.95;8.90;;;;;;;;;;5094332;28;20098;-64
2023/04/21 06:15:16;;;;;;;15.73;8.98;;;;;;;;;;5059971;28;20041;-64
2023/04/21 06:17:42;;;;;;;17.67;10.27;;;;;;;;;;5074244;28;20123;-64
2023/04/21 06:20:08;;;;;;;15.38;8.80;;;;;;;;;;5093114;28;20131;-64
2023/04/21 06:22:34;;;;;;;20.45;10.02;;;;;;;;;;5070929;28;20045;-65
2023/04/21 06:25:00;;;;;;;25.02;9.40;;;;;;;;;;5070779;28;20044;-65
2023/04/21 06:27:26;;;;;;;14.65;8.85;;;;;;;;;;5084156;28;20117;-64
2023/04/21 06:29:55;;;;;;;17.13;9.50;;;;;;;;;;5085684;28;20047;-64
2023/04/21 06:32:21;;;;;;;17.02;8.73;;;;;;;;;;5090277;28;20035;-65
2023/04/21 06:34:47;;;;;;;16.90;9.52;;;;;;;;;;5093580;28;20040;-64
2023/04/21 06:37:14;;;;;;;22.08;8.98;;;;;;;;;;5092566;28;20044;-64
2023/04/21 06:39:40;;;;;;;15.25;9.43;;;;;;;;;;5090435;28;20397;-65
2023/04/21 06:42:06;;;;;;;13.50;8.00;;;;;;;;;;5091631;28;20048;-64
2023/04/21 06:44:32;;;;;;;15.52;9.10;;;;;;;;;;5092401;28;20047;-65
2023/04/21 06:46:58;;;;;;;18.65;7.97;;;;;;;;;;5089919;28;20492;-65
2023/04/21 06:49:24;;;;;;;20.92;9.57;;;;;;;;;;5087654;28;20044;-64
2023/04/21 06:51:50;;;;;;;14.73;8.15;;;;;;;;;;5083906;28;20047;-64
2023/04/21 06:54:16;;;;;;;15.15;8.50;;;;;;;;;;5054680;28;20067;-64
2023/04/21 06:56:42;;;;;;;16.35;7.95;;;;;;;;;;5071319;28;20044;-64
2023/04/21 06:59:08;;;;;;;15.65;9.13;;;;;;;;;;5058357;28;20048;-64
2023/04/21 07:01:35;;;;;;;20.77;9.63;;;;;;;;;;5070834;28;20086;-64
2023/04/21 07:04:01;;;;;;;21.42;8.75;;;;;;;;;;5082707;28;20043;-64
2023/04/21 07:06:27;;;;;;;14.68;8.10;;;;;;;;;;5087514;28;20048;-64
2023/04/21 07:08:53;;;;;;;13.63;8.70;;;;;;;;;;5086756;28;20123;-64
2023/04/21 07:11:19;;;;;;;15.82;7.90;;;;;;;;;;5089306;28;20132;-64
2023/04/21 07:13:45;;;;;;;12.70;7.65;;;;;;;;;;5056147;28;20489;-65
2023/04/21 07:16:11;;;;;;;15.57;8.07;;;;;;;;;;5082914;28;20119;-66
2023/04/21 07:18:39;;;;;;;18.35;7.97;;;;;;;;;;5064826;28;20142;-64
2023/04/21 07:21:05;;;;;;;15.13;8.50;;;;;;;;;;5078582;28;20055;-65
2023/04/21 07:23:31;;;;;;;12.88;7.50;;;;;;;;;;5059403;28;20047;-64
2023/04/21 07:25:57;;;;;;;15.02;8.27;;;;;;;;;;5083994;28;20040;-65
2023/04/21 07:28:23;;;;;;;12.35;7.18;;;;;;;;;;5056402;28;20044;-64
2023/04/21 07:30:51;;;;;;;18.02;8.80;;;;;;;;;;5089493;28;20093;-65
2023/04/21 07:33:17;;;;;;;18.02;8.95;;;;;;;;;;5056179;28;20058;-65
2023/04/21 07:35:43;;;;;;;20.42;8.70;;;;;;;;;;5091510;28;20054;-64
2023/04/21 07:38:09;;;;;;;15.05;7.43;;;;;;;;;;5056741;28;20556;-63
2023/04/21 07:40:35;;;;;;;13.25;7.53;;;;;;;;;;5040897;28;20040;-64
2023/04/21 07:43:01;;;;;;;13.77;7.90;;;;;;;;;;5052108;28;20055;-64
2023/04/21 07:45:27;;;;;;;13.23;8.02;;;;;;;;;;5087727;28;20043;-64
2023/04/21 07:47:53;;;;;;;13.77;8.38;;;;;;;;;;5080474;28;20500;-64
2023/04/21 07:50:20;;;;;;;16.25;8.75;;;;;;;;;;5091790;28;20044;-64
2023/04/21 07:52:46;;;;;;;12.10;7.72;;;;;;;;;;5072995;28;20492;-64
2023/04/21 07:55:13;;;;;;;16.92;8.27;;;;;;;;;;5048368;28;20426;-64
2023/04/21 07:57:39;;;;;;;23.27;9.60;;;;;;;;;;5087105;28;20539;-64
2023/04/21 08:00:06;;;;;;;14.88;8.00;;;;;;;;;;5074097;28;20483;-63
2023/04/21 08:02:32;;;;;;;14.73;7.82;;;;;;;;;;5069389;28;20394;-64
2023/04/21 08:04:58;;;;;;;13.63;7.65;;;;;;;;;;5082414;28;20058;-64
2023/04/21 08:07:24;;;;;;;13.02;8.15;;;;;;;;;;5090109;28;20044;-64
2023/04/21 08:09:50;;;;;;;18.20;8.65;;;;;;;;;;5071712;28;20044;-64
2023/04/21 08:12:16;;;;;;;19.20;8.68;;;;;;;;;;5067513;28;20480;-65
2023/04/21 08:14:42;;;;;;;16.02;7.25;;;;;;;;;;5073506;28;20093;-64
2023/04/21 08:17:08;;;;;;;13.38;7.75;;;;;;;;;;5091743;28;20055;-64
2023/04/21 08:19:34;;;;;;;14.85;8.43;;;;;;;;;;5091938;28;20097;-64
2023/04/21 08:22:00;;;;;;;13.40;8.73;;;;;;;;;;5089999;28;20048;-64
2023/04/21 08:24:26;;;;;;;16.58;8.25;;;;;;;;;;5089913;28;20048;-65
2023/04/21 08:26:52;;;;;;;12.70;8.32;;;;;;;;;;5090591;28;20056;-64
2023/04/21 08:29:18;;;;;;;18.45;9.27;;;;;;;;;;5073735;28;20416;-65
2023/04/21 08:31:45;;;;;;;15.35;8.93;;;;;;;;;;5068956;28;20049;-65
2023/04/21 08:34:11;;;;;;;15.93;8.20;;;;;;;;;;5075832;28;20085;-66
2023/04/21 08:36:37;;;;;;;14.55;7.57;;;;;;;;;;5078663;28;20049;-65
2023/04/21 08:39:03;;;;;;;17.95;9.18;;;;;;;;;;5088397;28;20052;-65
2023/04/21 08:41:29;;;;;;;13.52;7.95;;;;;;;;;;5088449;28;20048;-65
2023/04/21 08:43:55;;;;;;;17.00;8.90;;;;;;;;;;5080953;28;20048;-65
2023/04/21 08:46:22;;;;;;;14.27;8.15;;;;;;;;;;5068515;28;20047;-65
2023/04/21 08:48:48;;;;;;;14.93;8.30;;;;;;;;;;5057982;28;20189;-66
2023/04/21 08:51:17;;;;;;;16.55;8.73;;;;;;;;;;5089621;28;20040;-67
2023/04/21 08:53:43;;;;;;;14.95;8.30;;;;;;;;;;5048687;28;20562;-67
2023/04/21 08:56:09;;;;;;;15.70;8.10;;;;;;;;;;5079207;28;20049;-67
2023/04/21 08:58:35;;;;;;;15.75;8.13;;;;;;;;;;5051754;28;20047;-67
2023/04/21 09:01:01;;;;;;;15.82;9.15;;;;;;;;;;5066221;28;20527;-67
2023/04/21 09:03:28;;;;;;;15.65;8.50;;;;;;;;;;5081101;28;20080;-67
2023/04/21 09:05:57;;;;;;;12.98;8.30;;;;;;;;;;5061450;28;20127;-67
2023/04/21 09:08:25;;;;;;;16.85;8.55;;;;;;;;;;5086792;28;20063;-67
2023/04/21 09:10:51;;;;;;;12.65;7.55;;;;;;;;;;5095438;28;20055;-67
2023/04/21 09:13:18;;;;;;;13.65;7.95;;;;;;;;;;5068379;28;20088;-67
2023/04/21 09:15:45;;;;;;;14.30;8.50;;;;;;;;;;5078184;28;20111;-66
2023/04/21 09:18:16;;;;;;;16.42;7.88;;;;;;;;;;5057309;28;20380;-66
2023/04/21 09:20:43;;;;;;;16.38;8.23;;;;;;;;;;5081539;28;20032;-66
2023/04/21 09:23:09;;;;;;;14.50;8.55;;;;;;;;;;5075606;28;20040;-66
2023/04/21 09:25:38;;;;;;;13.80;8.35;;;;;;;;;;5083298;28;20048;-66
2023/04/21 09:28:07;;;;;;;16.23;8.93;;;;;;;;;;5046727;28;20076;-66
2023/04/21 09:30:37;;;;;;;20.13;8.60;;;;;;;;;;5060787;28;20109;-66
2023/04/21 09:33:03;;;;;;;13.30;7.75;;;;;;;;;;5057761;28;20056;-65
2023/04/21 09:35:35;;;;;;;14.27;8.82;;;16.90;99.90;;;;;;5053609;28;20048;-66
2023/04/21 09:38:09;;;;;;;15.68;8.43;;;;;;;;;;5071700;28;20040;-66
2023/04/21 09:40:34;;;;;;;17.08;8.75;;;17.10;99.90;;;;;;5075010;28;20043;-66
2023/04/21 09:43:00;;;;;;;16.25;8.15;;;;;;;;;;5076045;28;20055;-66
2023/04/21 09:45:27;;;;;;;17.27;9.35;;;;;;;;;;5085666;28;20055;-67
2023/04/21 09:47:57;;;;;;;17.95;9.05;;;;;;;;;;5040820;28;20040;-66
2023/04/21 09:50:24;;;;;;;15.77;7.78;;;;;;;;;;5074415;28;20505;-66
2023/04/21 09:52:54;;;;;;;14.90;8.30;;;17.40;99.90;;;;;;5094240;28;20063;-67
2023/04/21 09:55:27;;;;;;;15.25;8.60;;;17.00;99.90;;;;;;5052015;28;20040;-67
2023/04/21 09:57:58;;;;;;;15.82;8.02;;;;;;;;;;5088395;28;20044;-67
2023/04/21 10:00:27;;;;;;;20.33;8.63;;;;;;;;;;5070964;28;20494;-66
2023/04/21 10:02:53;;;;;;;13.98;8.43;;;;;;;;;;5050836;28;20056;-67
2023/04/21 10:05:19;;;;;;;16.25;7.90;;;17.50;99.90;;;;;;5089096;28;20126;-66
2023/04/21 10:07:46;;;;;;;16.73;8.20;;;17.40;99.90;;;;;;5059758;28;20083;-66
2023/04/21 10:10:16;;;;;;;13.98;8.40;;;;;;;;;;5092902;28;20450;-67
2023/04/21 10:12:43;;;;;;;15.95;8.00;;;17.30;99.90;;;;;;5075043;28;20044;-66
2023/04/21 10:15:28;;;;;;;16.20;8.30;;;;;;;;;;5071442;28;20032;-66
2023/04/21 10:18:10;;;;;;;16.35;9.43;;;;;;;;;;5074067;28;20048;-66
2023/04/21 10:20:51;;;;;;;16.38;8.73;;;;;;;;;;5080980;28;20047;-66
2023/04/21 10:23:26;;;;;;;14.77;8.07;;;;;;;;;;5074789;28;20052;-66
2023/04/21 10:25:52;;;;;;;14.65;8.93;;;;;;;;;;5074248;28;20515;-67
2023/04/21 10:28:18;;;;;;;12.45;8.00;;;;;;;;;;5074262;28;20044;-66
2023/04/21 10:30:44;;;;;;;17.95;9.50;;;17.70;99.90;;;;;;5066345;28;20113;-66
2023/04/21 10:33:10;;;;;;;14.70;8.57;;;;;;;;;;5056061;28;20169;-66
2023/04/21 10:35:58;;;;;;;19.38;9.20;;;17.50;99.90;;;;;;5075057;28;20539;-66
2023/04/21 10:38:54;;;;;;;18.05;9.82;;;17.70;99.90;;;;;;5072833;28;20079;-66
2023/04/21 10:41:31;;;;;;;17.27;8.82;;;17.10;99.90;;;;;;5067361;28;20048;-66
2023/04/21 10:44:13;;;;;;;15.63;9.35;;;;;;;;;;5092174;28;20047;-66
2023/04/21 10:46:40;;;;;;;13.57;9.15;;;;;;;;;;5072427;28;20139;-66
2023/04/21 10:49:10;;;;;;;14.43;9.52;;;;;;;;;;5050276;28;20132;-66
2023/04/21 10:51:58;;;;;;;17.65;9.57;;;17.30;99.90;;;;;;5069369;28;20082;-66
2023/04/21 10:54:30;;;;;;;13.68;8.90;;;;;;;;;;5078836;28;20062;-66
2023/04/21 10:56:57;;;;;;;15.52;8.68;;;;;;;;;;5045998;28;20036;-66
2023/04/21 10:59:24;;;;;;;15.73;8.85;;;;;;;;;;5070274;28;20040;-66
2023/04/21 11:01:50;;;;;;;14.50;9.05;;;;;;;;;;5088778;28;20044;-66
2023/04/21 11:04:17;;;;;;;14.50;8.77;;;;;;;;;;5073200;28;20055;-66
2023/04/21 11:06:43;;;;;;;17.70;8.90;;;;;;;;;;5057325;28;20052;-66
2023/04/21 11:09:10;;;;;;;16.45;8.82;;;;;;;;;;5057060;28;20052;-66
2023/04/21 11:11:36;;;;;;;14.77;8.65;;;;;;;;;;5066447;28;20044;-66
2023/04/21 11:14:02;;;;;;;13.55;9.23;;;;;;;;;;5090536;28;20156;-66
2023/04/21 11:16:28;;;;;;;16.85;8.23;;;;;;;;;;5073166;28;20095;-66
2023/04/21 11:18:56;;;;;;;13.75;8.75;;;;;;;;;;5057147;28;20461;-68
2023/04/21 11:21:23;;;;;;;15.38;9.40;;;;;;;;;;5073603;28;20108;-66
2023/04/21 11:23:56;;;;;;;16.90;10.25;;;;;;;;;;5054586;28;20055;-66
2023/04/21 11:26:32;;;;;;;15.23;9.20;;;;;;;;;;5052131;28;20052;-66
2023/04/21 11:29:02;;;;;;;15.27;9.00;;;;;;;;;;5062949;28;20086;-66
2023/04/21 11:31:29;;;;;;;14.88;8.70;;;;;;;;;;5082551;28;20059;-66
2023/04/21 11:33:57;;;;;;;15.02;9.07;;;;;;;;;;5081306;28;20036;-66
2023/04/21 11:36:23;;;;;;;18.45;8.73;;;;;;;;;;5054850;28;20044;-65
2023/04/21 11:38:49;;;;;;;12.73;8.15;;;;;;;;;;5079969;28;20041;-65
2023/04/21 11:41:21;;;;;;;19.42;9.50;;;;;;;;;;5081393;28;20089;-65
2023/04/21 11:43:48;;;;;;;19.92;10.00;;;;;;;;;;5064522;28;20044;-66
2023/04/21 11:46:27;;;;;;;14.80;9.27;;;;;;;;;;5044392;28;20127;-66
2023/04/21 11:48:59;;;;;;;14.57;8.85;;;;;;;;;;5046532;28;20037;-66
2023/04/21 11:51:26;;;;;;;17.05;8.82;;;;;;;;;;5062124;28;20496;-65
2023/04/21 11:53:53;;;;;;;16.00;9.30;;;;;;;;;;5046262;28;20051;-65
2023/04/21 11:56:22;;;;;;;21.60;8.95;;;;;;;;;;5076362;28;20497;-66
2023/04/21 11:58:50;;;;;;;12.30;8.90;;;;;;;;;;5062845;28;20054;-65
2023/04/21 12:01:16;;;;;;;14.75;9.20;;;;;;;;;;5080296;28;20052;-65
2023/04/21 12:03:49;;;;;;;15.90;8.63;;;;;;;;;;5083982;28;20051;-66
2023/04/21 12:06:28;;;;;;;14.15;8.02;;;;;;;;;;5047587;28;20179;-66
2023/04/21 12:08:55;;;;;;;16.98;9.80;;;;;;;;;;5081059;28;20093;-65
2023/04/21 12:11:22;;;;;;;18.02;9.93;;;18.60;99.90;;;;;;5064652;28;20053;-65
2023/04/21 12:13:49;;;;;;;18.58;9.48;;;;;;;;;;5050400;28;20048;-65
2023/04/21 12:16:14;;;;;;;16.65;9.43;;;18.70;99.90;;;;;;5085620;28;20044;-65
2023/04/21 12:18:41;;;;;;;16.02;9.15;;;18.60;99.90;;;;;;5092499;28;20528;-65
2023/04/21 12:21:07;;;;;;;16.23;9.00;;;;;;;;;;5069943;28;20054;-65
2023/04/21 12:23:33;;;;;;;13.18;8.30;;;;;;;;;;5086888;28;20127;-65
2023/04/21 12:26:00;;;;;;;16.50;8.77;;;;;;;;;;5071633;28;20488;-65
2023/04/21 12:28:25;;;;;;;15.35;9.02;;;19.00;99.90;;;;;;5078395;28;20574;-65
2023/04/21 12:30:51;;;;;;;13.02;8.77;;;;;;;;;;5075071;28;20080;-65
2023/04/21 12:33:17;;;;;;;16.42;8.65;;;;;;;;;;5055860;28;20147;-65
2023/04/21 12:35:43;;;;;;;16.45;8.55;;;;;;;;;;5090050;28;20182;-65
2023/04/21 12:38:09;;;;;;;18.33;8.93;;;;;;;;;;5077415;28;20545;-65
2023/04/21 12:40:35;;;;;;;19.25;8.90;;;19.40;99.90;;;;;;5056551;28;20052;-65
2023/04/21 12:43:01;;;;;;;16.30;8.98;;;;;;;;;;5088762;28;20050;-65
2023/04/21 12:45:27;;;;;;;15.38;8.02;;;;;;;;;;5061535;28;20137;-66
2023/04/21 12:47:53;;;;;;;14.82;8.88;;;;;;;;;;5078690;28;20048;-66
2023/04/21 12:50:19;;;;;;;14.27;8.98;;;19.60;99.90;;;;;;5092694;28;20055;-65
2023/04/21 12:52:47;;;;;;;19.98;10.68;;;;;;;;;;5073037;28;20079;-65
2023/04/21 12:55:13;;;;;;;16.98;10.20;;;;;;;;;;5068949;28;20052;-66
2023/04/21 12:57:39;;;;;;;19.67;11.63;;;;;;;;;;5058730;28;20051;-65
2023/04/21 13:00:07;;;;;;;23.55;10.93;;;;;;;;;;5080511;28;20428;-65
2023/04/21 13:02:35;;;;;;;21.48;11.10;;;;;;;;;;5055664;28;20372;-65
2023/04/21 13:05:03;;;;;;;18.33;11.27;;;;;;;;;;5068134;28;20048;-65
2023/04/21 13:07:30;;;;;;;18.35;11.32;;;;;;;;;;5057372;28;20528;-65
2023/04/21 13:09:56;;;;;;;15.00;10.00;;;18.80;99.90;;;;;;5057499;28;20045;-65
2023/04/21 13:12:22;;;;;;;17.45;11.02;;;;;;;;;;5071111;28;20059;-65
2023/04/21 13:14:49;;;;;;;20.75;11.60;;;;;;;;;;5072863;28;20052;-65
2023/04/21 13:17:15;;;;;;;17.67;12.40;;;;;;;;;;5077896;28;20047;-65
2023/04/21 13:19:41;;;;;;;20.55;10.82;;;18.90;99.90;;;;;;5061192;28;20040;-65
2023/04/21 13:22:06;;;;;;;18.35;11.25;;;19.00;99.90;;;;;;5074999;28;20044;-65
2023/04/21 13:24:33;;;;;;;23.02;11.90;;;;;;;;;;5074684;28;20101;-65
2023/04/21 13:27:00;;;;;;;22.35;11.10;;;;;;;;;;5078517;28;20045;-65
2023/04/21 13:29:28;;;;;;;19.88;12.27;;;;;;;;;;5072394;28;20044;-65
2023/04/21 13:31:55;;;;;;;16.08;11.13;;;;;;;;;;5059908;28;20468;-65
2023/04/21 13:34:21;;;;;;;16.63;11.20;;;;;;;;;;5076138;28;20384;-65
2023/04/21 13:36:47;;;;;;;21.88;11.85;;;;;;;;;;5058901;28;20050;-65
2023/04/21 13:39:14;;;;;;;16.90;11.35;;;;;;;;;;5074548;28;20047;-65
2023/04/21 13:41:40;;;;;;;18.95;11.27;;;;;;;;;;5046797;28;20053;-65
2023/04/21 13:44:06;;;;;;;21.15;11.10;;;;;;;;;;5091102;28;20059;-65
2023/04/21 13:46:32;;;;;;;18.98;11.00;;;;;;;;;;5094918;28;20392;-65
2023/04/21 13:48:58;;;;;;;19.75;11.00;;;;;;;;;;5075757;28;20086;-65
2023/04/21 13:51:24;;;;;;;16.98;12.00;;;;;;;;;;5094388;28;20048;-65
2023/04/21 13:53:50;;;;;;;17.15;11.43;;;;;;;;;;5078310;28;20058;-65
2023/04/21 13:56:23;;;;;;;19.50;11.60;;;;;;;;;;5068765;22;20048;-65
2023/04/21 13:58:58;;;;;;;16.88;10.88;;;;;;;;;;5178819;22;20094;-66
2023/04/21 14:01:24;;;;;;;17.90;10.50;;;;;;;;;;5091176;22;20349;-65
2023/04/21 14:03:51;;;;;;;21.73;10.38;;;;;;;;;;5076306;28;20048;-65
2023/04/21 14:06:17;;;;;;;15.93;9.55;;;;;;;;;;5067774;28;20045;-66
2023/04/21 14:08:43;;;;;;;16.50;9.65;;;;;;;;;;5086070;28;20083;-66
2023/04/21 14:11:09;;;;;;;15.75;9.50;;;;;;;;;;5074229;28;20084;-65
2023/04/21 14:13:35;;;;;;;19.95;10.07;;;;;;;;;;5056089;28;20122;-65
2023/04/21 14:16:01;;;;;;;19.58;10.20;;;18.90;99.90;;;;;;5094611;28;20040;-66